Atmospheric History
02/08/2018 19:47  to  2/9/2018 19:47
Change End Date:
To complete the export process:
1) Select all of the data below
2) Copy the data to the clipboard
3) Open a word processor such as Notepad
4) Paste the data into the word processor
5) Save the file

Date/Time (MST), AirTemp, RH, Dewpoint ,AvgWindSpeed, GustWindSpeed, WindDirection, PrecipType, PrecipIntensity, PrecipAccumulation, PrecipRate
02/09/2018 19:42, -7, 81, -12 ,9, 10, N, None, None, ,  
02/09/2018 19:38, -7, 82, -11 ,9, 9, N, None, None, ,  
02/09/2018 19:32, -7, 82, -11 ,7, 9, N, None, None, ,  
02/09/2018 19:23, -8, 81, -12 ,8, 9, N, None, None, ,  
02/09/2018 19:22, -8, 82, -12 ,8, 9, N, None, None, ,  
02/09/2018 19:12, -8, 81, -12 ,9, 9, N, None, None, ,  
02/09/2018 19:08, -8, 82, -12 ,9, 10, N, None, None, ,  
02/09/2018 19:02, -8, 79, -13 ,9, 10, N, None, None, ,  
02/09/2018 18:53, -7, 80, -11 ,8, 9, N, None, None, ,  
02/09/2018 18:52, -7, 81, -11 ,8, 9, N, None, None, ,  
02/09/2018 18:42, -6, 81, -11 ,7, 9, N, None, None, ,  
02/09/2018 18:38, -6, 81, -10 ,8, 9, N, None, None, ,  
02/09/2018 18:32, -6, 82, -10 ,8, 9, N, None, None, ,  
02/09/2018 18:23, -7, 81, -11 ,9, 9, N, None, None, ,  
02/09/2018 18:22, -7, 82, -11 ,9, 9, N, None, None, ,  
02/09/2018 18:11, -7, 82, -11 ,9, 10, N, None, None, ,  
02/09/2018 18:08, -7, 81, -11 ,9, 10, N, None, None, ,  
02/09/2018 18:01, -7, 80, -11 ,9, 10, N, None, None, ,  
02/09/2018 17:53, -5, 81, -10 ,8, 9, N, None, None, ,  
02/09/2018 17:51, -5, 81, -10 ,7, 9, N, None, None, ,  
02/09/2018 17:41, -4, 83, -7 ,6, 8, N, None, None, ,  
02/09/2018 17:38, -4, 83, -8 ,7, 8, N, None, None, ,  
02/09/2018 17:31, -5, 81, -10 ,7, 8, N, None, None, ,  
02/09/2018 17:23, -5, 79, -10 ,6, 6, N, None, None, ,  
02/09/2018 17:21, -5, 79, -10 ,6, 6, N, None, None, ,  
02/09/2018 17:11, -3, 80, -8 ,5, 5, N, None, None, ,  
02/09/2018 17:08, -3, 80, -8 ,4, 5, N, None, None, ,  
02/09/2018 17:01, -3, 75, -9 ,4, 6, N, None, None, ,  
02/09/2018 16:53, -1, 76, -7 ,6, 6, N, None, None, ,  
02/09/2018 16:51, -1, 76, -7 ,6, 6, N, None, None, ,  
02/09/2018 16:41, -1, 74, -7 ,4, 6, N, None, None, ,  
02/09/2018 16:38, 0, 73, -7 ,4, 6, N, None, None, ,  
02/09/2018 16:31, 0, 72, -6 ,5, 6, N, None, None, ,  
02/09/2018 16:23, 1, 72, -6 ,4, 6, N, None, None, ,  
02/09/2018 16:21, 1, 72, -6 ,4, 6, N, None, None, ,  
02/09/2018 16:11, 1, 71, -6 ,4, 6, N, None, None, ,  
02/09/2018 16:08, 1, 71, -6 ,5, 6, N, None, None, ,  
02/09/2018 16:01, 1, 72, -5 ,4, 6, N, None, None, ,  
02/09/2018 15:53, 2, 73, -5 ,3, 6, N, None, None, ,  
02/09/2018 15:51, 2, 73, -5 ,4, 6, N, None, None, ,  
02/09/2018 15:41, 2, 73, -5 ,6, 7, N, None, None, ,  
02/09/2018 15:38, 2, 73, -5 ,6, 7, N, None, None, ,  
02/09/2018 15:31, 2, 73, -5 ,5, 6, N, None, None, ,  
02/09/2018 15:23, 2, 74, -5 ,4, 7, N, None, None, ,  
02/09/2018 15:21, 1, 74, -5 ,4, 7, N, None, None, ,  
02/09/2018 15:11, 2, 74, -4 ,6, 7, N, None, None, ,  
02/09/2018 15:08, 2, 73, -5 ,6, 7, N, None, None, ,  
02/09/2018 15:01, 2, 73, -5 ,6, 7, N, None, None, ,  
02/09/2018 14:53, 2, 72, -5 ,6, 9, N, None, None, ,  
02/09/2018 14:51, 2, 72, -5 ,6, 9, N, None, None, ,  
02/09/2018 14:41, 2, 70, -5 ,6, 9, N, None, None, ,  
02/09/2018 14:38, 2, 70, -6 ,7, 9, N, None, None, ,  
02/09/2018 14:31, 3, 70, -5 ,6, 8, N, None, None, ,  
02/09/2018 14:23, 3, 72, -4 ,7, 9, N, None, None, ,  
02/09/2018 14:21, 3, 73, -4 ,6, 9, N, None, None, ,  
02/09/2018 14:11, 2, 71, -5 ,6, 9, N, None, None, ,  
02/09/2018 14:08, 2, 71, -6 ,7, 9, N, None, None, ,  
02/09/2018 14:01, 2, 71, -5 ,6, 9, N, None, None, ,  
02/09/2018 13:53, 2, 71, -5 ,5, 8, N, None, None, ,  
02/09/2018 13:51, 2, 71, -5 ,4, 7, N, None, None, ,  
02/09/2018 13:41, 1, 69, -6 ,7, 9, N, Yes, , ,  
02/09/2018 13:38, 2, 71, -5 ,6, 7, N, None, None, ,  
02/09/2018 13:31, 2, 69, -6 ,6, 7, N, None, None, ,  
02/09/2018 13:23, 2, 67, -6 ,5, 7, N, None, None, ,  
02/09/2018 13:21, 2, 67, -6 ,6, 7, N, None, None, ,  
02/09/2018 13:11, 3, 65, -6 ,6, 7, N, None, None, ,  
02/09/2018 13:08, 3, 65, -6 ,6, 7, N, None, None, ,  
02/09/2018 13:01, 2, 66, -6 ,5, 7, N, None, None, ,  
02/09/2018 12:53, 2, 64, -7 ,4, 6, N, None, None, ,  
02/09/2018 12:51, 3, 64, -7 ,4, 6, N, None, None, ,  
02/09/2018 12:41, 3, 65, -6 ,4, 6, N, None, None, ,  
02/09/2018 12:38, 3, 64, -7 ,4, 6, N, None, None, ,  
02/09/2018 12:31, 2, 63, -7 ,5, 6, N, None, None, ,  
02/09/2018 12:23, 3, 64, -7 ,4, 7, N, None, None, ,  
02/09/2018 12:21, 2, 64, -7 ,5, 7, N, None, None, ,  
02/09/2018 12:11, 2, 65, -7 ,4, 6, N, None, None, ,  
02/09/2018 12:08, 2, 66, -7 ,5, 6, N, None, None, ,  
02/09/2018 12:01, 1, 68, -7 ,1, 4, N, None, None, ,  
02/09/2018 11:53, 0, 68, -8 ,4, 4, N, None, None, ,  
02/09/2018 11:50, 1, 66, -8 ,3, 4, N, None, None, ,  
02/09/2018 11:40, 3, 62, -7 ,0, 2, N, None, None, ,  
02/09/2018 11:38, 2, 64, -7 ,0, 2, N, None, None, ,  
02/09/2018 11:30, 1, 67, -7 ,1, 3, N, None, None, ,  
02/09/2018 11:23, 0, 68, -8 ,2, 3, N, None, None, ,  
02/09/2018 11:20, 1, 67, -8 ,2, 3, N, None, None, ,  
02/09/2018 11:10, 3, 66, -6 ,1, 2, N, None, None, ,  
02/09/2018 11:08, 2, 67, -6 ,1, 3, N, None, None, ,  
02/09/2018 11:00, 0, 69, -8 ,2, 4, N, None, None, ,  
02/09/2018 10:53, 1, 71, -6 ,2, 4, N, None, None, ,  
02/09/2018 10:50, 0, 69, -8 ,1, 4, N, None, None, ,  
02/09/2018 10:40, 2, 72, -5 ,1, 4, N, Yes, , ,  
02/09/2018 10:38, 0, 72, -7 ,0, 4, N, Yes, , ,  
02/09/2018 10:30, -1, 74, -7 ,2, 4, N, Yes, , ,  
02/09/2018 10:23, 0, 73, -7 ,1, 3, N, Yes, , ,  
02/09/2018 10:20, 0, 74, -7 ,0, 4, N, Yes, , ,  
02/09/2018 10:10, -1, 72, -8 ,2, 4, N, Yes, , ,  
02/09/2018 10:08, -1, 72, -8 ,2, 5, N, None, None, ,  
02/09/2018 10:00, -1, 71, -8 ,3, 5, N, None, None, ,  
02/09/2018 09:53, 1, 66, -8 ,2, 3, N, None, None, ,  
02/09/2018 09:50, 1, 70, -6 ,0, 1, N, None, None, ,  
02/09/2018 09:40, -1, 70, -9 ,0, 1, N, None, None, ,  
02/09/2018 09:38, -1, 71, -8 ,1, 1, N, Yes, , ,  
02/09/2018 09:30, -1, 73, -8 ,0, 4, N, Yes, , ,  
02/09/2018 09:23, -2, 74, -8 ,3, 4, N, Yes, , ,  
02/09/2018 09:20, -2, 75, -8 ,3, 4, N, Yes, , ,  
02/09/2018 09:10, -2, 74, -9 ,1, 3, N, Yes, , ,  
02/09/2018 09:08, -2, 75, -8 ,3, 3, N, None, None, ,  
02/09/2018 09:00, -3, 76, -8 ,1, 4, N, None, None, ,  
02/09/2018 08:53, -3, 78, -8 ,2, 4, N, None, None, ,  
02/09/2018 08:50, -3, 77, -8 ,3, 4, N, None, None, ,  
02/09/2018 08:40, -3, 77, -8 ,1, 1, N, None, None, ,  
02/09/2018 08:38, -3, 77, -8 ,0, 1, N, None, None, ,  
02/09/2018 08:30, -3, 79, -8 ,0, 1, N, None, None, ,  
02/09/2018 08:23, -3, 80, -8 ,0, 1, N, None, None, ,  
02/09/2018 08:20, -3, 80, -8 ,0, 1, N, Yes, , ,  
02/09/2018 08:10, -3, 80, -8 ,1, 2, N, Yes, , ,  
02/09/2018 08:08, -3, 80, -8 ,1, 1, N, Yes, , ,  
02/09/2018 08:00, -3, 80, -8 ,1, 1, N, Yes, , ,  
02/09/2018 07:53, -3, 80, -8 ,0, 1, N, Yes, , ,  
02/09/2018 07:50, -4, 80, -8 ,0, 2, N, Yes, , ,  
02/09/2018 07:40, -4, 80, -8 ,2, 2, N, Yes, , ,  
02/09/2018 07:38, -4, 80, -9 ,2, 2, N, Yes, , ,  
02/09/2018 07:30, -4, 80, -9 ,0, 1, N, Yes, , ,  
02/09/2018 07:23, -4, 81, -8 ,0, 1, N, Yes, , ,  
02/09/2018 07:20, -4, 81, -8 ,0, 0, N, Yes, , ,  
02/09/2018 07:10, -4, 81, -8 ,0, 2, N, Yes, , ,  
02/09/2018 07:08, -4, 81, -8 ,0, 4, N, Yes, , ,  
02/09/2018 07:00, -4, 81, -9 ,2, 4, N, Yes, , ,  
02/09/2018 06:53, -4, 80, -9 ,4, 4, N, None, None, ,  
02/09/2018 06:50, -4, 80, -9 ,3, 4, N, Yes, , ,  
02/09/2018 06:40, -4, 80, -9 ,3, 4, N, Yes, , ,  
02/09/2018 06:38, -4, 80, -9 ,4, 4, N, None, None, ,  
02/09/2018 06:30, -4, 80, -9 ,2, 3, N, Yes, , ,  
02/09/2018 06:23, -4, 80, -9 ,1, 3, N, Yes, , ,  
02/09/2018 06:20, -4, 81, -8 ,2, 3, N, Yes, , ,  
02/09/2018 06:10, -4, 81, -9 ,0, 2, N, Yes, , ,  
02/09/2018 06:08, -4, 81, -9 ,0, 2, N, Yes, , ,  
02/09/2018 06:00, -4, 81, -9 ,1, 1, N, Yes, , ,  
02/09/2018 05:53, -4, 81, -9 ,0, 2, N, Yes, , ,  
02/09/2018 05:50, -4, 81, -9 ,1, 2, N, Yes, , ,  
02/09/2018 05:40, -5, 81, -9 ,0, 1, N, Yes, , ,  
02/09/2018 05:38, -5, 81, -9 ,0, 1, N, Yes, , ,  
02/09/2018 05:30, -5, 81, -9 ,0, 0, N, Yes, , ,  
02/09/2018 05:23, -5, 81, -9 ,0, 2, N, Yes, , ,  
02/09/2018 05:20, -5, 81, -9 ,0, 2, N, Yes, , ,  
02/09/2018 05:10, -5, 81, -9 ,0, 1, N, Yes, , ,  
02/09/2018 05:08, -5, 81, -9 ,1, 2, N, Yes, , ,  
02/09/2018 05:00, -5, 81, -9 ,1, 3, N, Yes, , ,  
02/09/2018 04:53, -5, 81, -9 ,1, 1, N, Yes, , ,  
02/09/2018 04:50, -5, 81, -9 ,0, 1, N, Yes, , ,  
02/09/2018 04:40, -5, 81, -9 ,0, 2, N, Yes, , ,  
02/09/2018 04:38, -5, 81, -9 ,1, 2, N, Yes, , ,  
02/09/2018 04:30, -5, 82, -9 ,1, 2, N, Yes, , ,  
02/09/2018 04:23, -5, 82, -10 ,0, 1, N, None, None, ,  
02/09/2018 04:20, -5, 82, -10 ,0, 1, N, None, None, ,  
02/09/2018 04:10, -6, 81, -10 ,0, 1, N, None, None, ,  
02/09/2018 04:08, -6, 81, -10 ,0, 1, N, None, None, ,  
02/09/2018 03:59, -6, 81, -10 ,1, 2, N, None, None, ,  
02/09/2018 03:53, -5, 81, -9 ,1, 2, N, None, None, ,  
02/09/2018 03:49, -5, 81, -9 ,0, 1, N, None, None, ,  
02/09/2018 03:39, -5, 82, -9 ,0, 1, N, None, None, ,  
02/09/2018 03:38, -5, 82, -9 ,0, 1, N, None, None, ,  
02/09/2018 03:29, -5, 82, -9 ,0, 0, N, None, None, ,  
02/09/2018 03:23, -5, 82, -9 ,0, 1, N, None, None, ,  
02/09/2018 03:19, -5, 81, -10 ,0, 1, N, None, None, ,  
02/09/2018 03:09, -5, 82, -9 ,0, 0, N, None, None, ,  
02/09/2018 03:08, -5, 82, -9 ,0, 0, N, None, None, ,  
02/09/2018 02:59, -6, 81, -10 ,0, 4, N, None, None, ,  
02/09/2018 02:53, -6, 80, -10 ,2, 4, N, None, None, ,  
02/09/2018 02:49, -5, 81, -9 ,4, 4, N, None, None, ,  
02/09/2018 02:39, -4, 82, -8 ,1, 3, N, None, None, ,  
02/09/2018 02:38, -4, 82, -9 ,1, 3, N, None, None, ,  
02/09/2018 02:29, -4, 82, -8 ,2, 3, N, None, None, ,  
02/09/2018 02:23, -5, 81, -9 ,1, 2, N, None, None, ,  
02/09/2018 02:19, -4, 80, -9 ,1, 1, N, None, None, ,  
02/09/2018 02:09, -4, 81, -8 ,0, 2, N, None, None, ,  
02/09/2018 02:08, -4, 81, -8 ,0, 2, N, Yes, , ,  
02/09/2018 01:59, -4, 81, -8 ,2, 4, N, Yes, , ,  
02/09/2018 01:53, -3, 81, -8 ,1, 4, N, Yes, , ,  
02/09/2018 01:49, -3, 80, -8 ,1, 5, N, Yes, , ,  
02/09/2018 01:39, -3, 80, -7 ,4, 5, N, Yes, , ,  
02/09/2018 01:38, -3, 80, -7 ,4, 5, N, Yes, , ,  
02/09/2018 01:29, -3, 81, -7 ,4, 4, N, Yes, , ,  
02/09/2018 01:23, -3, 81, -8 ,1, 2, N, None, None, ,  
02/09/2018 01:19, -3, 80, -8 ,2, 2, N, None, None, ,  
02/09/2018 01:09, -3, 78, -8 ,1, 4, N, None, None, ,  
02/09/2018 01:08, -3, 78, -8 ,1, 4, N, None, None, ,  
02/09/2018 00:59, -2, 78, -7 ,2, 6, N, None, None, ,  
02/09/2018 00:53, -2, 79, -7 ,4, 6, N, None, None, ,  
02/09/2018 00:49, -2, 78, -7 ,2, 5, N, None, None, ,  
02/09/2018 00:39, -2, 78, -7 ,5, 8, N, None, None, ,  
02/09/2018 00:38, -2, 78, -7 ,6, 8, N, None, None, ,  
02/09/2018 00:29, -2, 78, -7 ,6, 9, N, None, None, ,  
02/09/2018 00:23, -1, 78, -7 ,4, 6, N, None, None, ,  
02/09/2018 00:19, -1, 78, -7 ,3, 6, N, None, None, ,  
02/09/2018 00:09, -1, 79, -6 ,5, 6, N, None, None, ,  
02/09/2018 00:08, -1, 79, -6 ,4, 6, N, None, None, ,  
02/08/2018 23:59, -1, 78, -6 ,4, 9, N, Yes, , ,  
02/08/2018 23:53, 0, 78, -5 ,5, 8, N, Yes, , ,  
02/08/2018 23:49, 0, 79, -5 ,4, 6, N, Yes, , ,  
02/08/2018 23:39, 1, 78, -5 ,3, 6, N, Yes, , ,  
02/08/2018 23:38, 1, 79, -5 ,3, 6, N, Yes, , ,  
02/08/2018 23:29, 1, 78, -5 ,4, 6, N, Yes, , ,  
02/08/2018 23:23, 1, 77, -5 ,3, 7, N, None, None, ,  
02/08/2018 23:19, 1, 78, -4 ,4, 7, N, None, None, ,  
02/08/2018 23:09, 1, 79, -4 ,4, 6, N, None, None, ,  
02/08/2018 23:08, 1, 79, -4 ,2, 6, N, None, None, ,  
02/08/2018 22:59, 1, 78, -4 ,4, 7, N, None, None, ,  
02/08/2018 22:53, 1, 79, -4 ,5, 7, N, None, None, ,  
02/08/2018 22:49, 1, 79, -4 ,5, 7, N, Yes, , ,  
02/08/2018 22:39, 1, 79, -4 ,4, 9, N, None, None, ,  
02/08/2018 22:38, 1, 79, -3 ,4, 9, N, None, None, ,  
02/08/2018 22:29, 2, 79, -3 ,6, 11, N, Yes, , ,  
02/08/2018 22:23, 2, 80, -3 ,7, 10, N, Yes, , ,  
02/08/2018 22:19, 2, 80, -3 ,6, 7, N, Yes, , ,  
02/08/2018 22:09, 2, 81, -2 ,4, 7, N, Yes, , ,  
02/08/2018 22:08, 2, 81, -2 ,3, 7, N, Yes, , ,  
02/08/2018 21:59, 2, 80, -2 ,6, 10, N, None, None, ,  
02/08/2018 21:53, 2, 81, -2 ,7, 10, N, None, None, ,  
02/08/2018 21:49, 2, 82, -2 ,6, 8, N, None, None, ,  
02/08/2018 21:39, 2, 82, -2 ,4, 6, N, None, None, ,  
02/08/2018 21:38, 2, 82, -2 ,4, 6, N, Yes, , ,  
02/08/2018 21:29, 2, 82, -2 ,6, 7, N, Yes, , ,  
02/08/2018 21:23, 3, 83, -1 ,4, 9, N, Yes, , ,  
02/08/2018 21:18, 3, 83, -1 ,7, 9, N, Yes, , ,  
02/08/2018 21:08, 3, 84, -1 ,7, 11, N, Yes, , ,  
02/08/2018 21:08, 3, 84, -1 ,7, 11, N, Yes, , ,  
02/08/2018 20:58, 3, 84, -1 ,7, 11, N, Yes, , ,  
02/08/2018 20:53, 3, 84, 0 ,6, 9, N, Yes, , ,  
02/08/2018 20:48, 3, 84, 0 ,6, 9, N, Yes, , ,  
02/08/2018 20:38, 4, 85, 0 ,6, 10, N, Yes, , ,  
02/08/2018 20:38, 4, 85, 0 ,6, 10, N, Yes, , ,  
02/08/2018 20:28, 4, 84, 0 ,7, 12, N, Yes, , ,  
02/08/2018 20:23, 4, 84, 0 ,9, 12, N, Yes, , ,  
02/08/2018 20:18, 4, 84, 1 ,6, 9, N, Yes, , ,  
02/08/2018 20:08, 6, 85, 2 ,4, 7, N, Yes, , ,  
02/08/2018 20:08, 6, 85, 2 ,4, 7, N, Yes, , ,  
02/08/2018 19:58, 6, 84, 2 ,6, 7, N, Yes, , ,  
02/08/2018 19:53, 6, 84, 2 ,5, 10, N, Yes, , ,  
02/08/2018 19:48, 6, 84, 2 ,7, 10, N, Yes, , ,  
Change End Date:

Copyright © 1998-2015 Vaisala, Inc.
All Rights Reserved
Send comments about the data to:
SCAN Web ® is a registered trademark of Vaisala, Inc.
SCAN Web Version 6.0